sensor_id;sensor_type;location;lat;lon;timestamp;P1;durP1;ratioP1;P2;durP2;ratioP2
22382;SDS011;11359;45.802;13.530;2022-09-09T05:10:40;0.75;;;0.70;;
22382;SDS011;11359;45.802;13.530;2022-09-09T05:13:07;0.60;;;0.60;;
22382;SDS011;11359;45.802;13.530;2022-09-09T05:15:32;0.70;;;0.70;;
22382;SDS011;11359;45.802;13.530;2022-09-09T05:17:59;0.40;;;0.40;;
22382;SDS011;11359;45.802;13.530;2022-09-09T05:20:26;0.60;;;0.60;;
22382;SDS011;11359;45.802;13.530;2022-09-09T05:22:55;0.70;;;0.70;;
22382;SDS011;11359;45.802;13.530;2022-09-09T05:25:21;0.50;;;0.50;;
22382;SDS011;11359;45.802;13.530;2022-09-09T05:27:50;0.57;;;0.57;;
22382;SDS011;11359;45.802;13.530;2022-09-09T05:30:17;1.42;;;0.57;;
22382;SDS011;11359;45.802;13.530;2022-09-09T05:32:43;0.70;;;0.70;;
22382;SDS011;11359;45.802;13.530;2022-09-09T05:35:09;0.80;;;0.73;;
22382;SDS011;11359;45.802;13.530;2022-09-09T05:37:35;0.50;;;0.50;;
22382;SDS011;11359;45.802;13.530;2022-09-09T05:40:01;0.65;;;0.60;;
22382;SDS011;11359;45.802;13.530;2022-09-09T05:42:30;0.75;;;0.75;;
22382;SDS011;11359;45.802;13.530;2022-09-09T05:44:57;0.77;;;0.77;;
22382;SDS011;11359;45.802;13.530;2022-09-09T05:47:23;1.00;;;0.80;;
22382;SDS011;11359;45.802;13.530;2022-09-09T05:49:49;1.15;;;1.00;;
22382;SDS011;11359;45.802;13.530;2022-09-09T05:52:14;2.10;;;1.20;;
22382;SDS011;11359;45.802;13.530;2022-09-09T05:54:40;1.48;;;1.00;;
22382;SDS011;11359;45.802;13.530;2022-09-09T05:57:07;1.15;;;1.00;;
22382;SDS011;11359;45.802;13.530;2022-09-09T05:59:33;0.90;;;0.80;;
22382;SDS011;11359;45.802;13.530;2022-09-09T06:01:58;1.02;;;0.77;;
22382;SDS011;11359;45.802;13.530;2022-09-09T06:04:24;1.00;;;0.80;;
22382;SDS011;11359;45.802;13.530;2022-09-09T06:06:50;0.70;;;0.70;;
22382;SDS011;11359;45.802;13.530;2022-09-09T06:09:15;0.60;;;0.60;;
22382;SDS011;11359;45.802;13.530;2022-09-09T06:11:41;0.60;;;0.60;;
22382;SDS011;11359;45.802;13.530;2022-09-09T06:14:07;0.60;;;0.60;;
22382;SDS011;11359;45.802;13.530;2022-09-09T06:16:34;1.05;;;0.88;;
22382;SDS011;11359;45.802;13.530;2022-09-09T06:19:00;0.63;;;0.63;;
22382;SDS011;11359;45.802;13.530;2022-09-09T06:21:32;1.00;;;0.90;;
22382;SDS011;11359;45.802;13.530;2022-09-09T06:24:01;0.80;;;0.73;;
22382;SDS011;11359;45.802;13.530;2022-09-09T06:26:27;0.65;;;0.63;;
22382;SDS011;11359;45.802;13.530;2022-09-09T06:28:57;0.82;;;0.80;;
22382;SDS011;11359;45.802;13.530;2022-09-09T06:31:25;0.88;;;0.80;;
22382;SDS011;11359;45.802;13.530;2022-09-09T06:33:55;1.38;;;0.85;;
22382;SDS011;11359;45.802;13.530;2022-09-09T06:36:23;0.80;;;0.80;;
22382;SDS011;11359;45.802;13.530;2022-09-09T06:39:02;0.93;;;0.90;;
22382;SDS011;11359;45.802;13.530;2022-09-09T06:41:29;1.20;;;1.10;;
22382;SDS011;11359;45.802;13.530;2022-09-09T06:43:56;1.10;;;1.00;;
22382;SDS011;11359;45.802;13.530;2022-09-09T06:46:23;1.25;;;0.80;;
22382;SDS011;11359;45.802;13.530;2022-09-09T06:48:54;0.80;;;0.73;;
22382;SDS011;11359;45.802;13.530;2022-09-09T06:51:21;0.80;;;0.80;;
22382;SDS011;11359;45.802;13.530;2022-09-09T06:53:52;0.73;;;0.60;;
22382;SDS011;11359;45.802;13.530;2022-09-09T06:56:23;0.50;;;0.50;;
22382;SDS011;11359;45.802;13.530;2022-09-09T06:58:53;0.70;;;0.70;;
22382;SDS011;11359;45.802;13.530;2022-09-09T07:01:24;0.60;;;0.60;;
22382;SDS011;11359;45.802;13.530;2022-09-09T07:03:52;0.50;;;0.50;;
22382;SDS011;11359;45.802;13.530;2022-09-09T07:06:21;0.70;;;0.60;;
22382;SDS011;11359;45.802;13.530;2022-09-09T07:08:52;0.60;;;0.50;;
22382;SDS011;11359;45.802;13.530;2022-09-09T07:11:24;0.40;;;0.40;;
22382;SDS011;11359;45.802;13.530;2022-09-09T07:13:52;0.60;;;0.60;;
22382;SDS011;11359;45.802;13.530;2022-09-09T07:16:19;0.88;;;0.60;;
22382;SDS011;11359;45.802;13.530;2022-09-09T07:18:45;0.50;;;0.50;;
22382;SDS011;11359;45.802;13.530;2022-09-09T07:21:12;0.60;;;0.52;;
22382;SDS011;11359;45.802;13.530;2022-09-09T07:23:39;0.57;;;0.47;;
22382;SDS011;11359;45.802;13.530;2022-09-09T07:26:10;0.68;;;0.60;;
22382;SDS011;11359;45.802;13.530;2022-09-09T07:28:38;0.70;;;0.60;;
22382;SDS011;11359;45.802;13.530;2022-09-09T07:31:05;0.47;;;0.47;;
22382;SDS011;11359;45.802;13.530;2022-09-09T07:33:33;0.82;;;0.50;;
22382;SDS011;11359;45.802;13.530;2022-09-09T07:36:07;0.77;;;0.57;;
22382;SDS011;11359;45.802;13.530;2022-09-09T07:38:41;0.40;;;0.40;;
22382;SDS011;11359;45.802;13.530;2022-09-09T07:41:10;0.40;;;0.40;;
22382;SDS011;11359;45.802;13.530;2022-09-09T07:43:41;0.52;;;0.50;;
22382;SDS011;11359;45.802;13.530;2022-09-09T07:46:09;0.45;;;0.40;;
22382;SDS011;11359;45.802;13.530;2022-09-09T07:48:35;0.50;;;0.50;;
22382;SDS011;11359;45.802;13.530;2022-09-09T07:51:05;0.60;;;0.45;;
22382;SDS011;11359;45.802;13.530;2022-09-09T07:53:33;0.40;;;0.40;;
22382;SDS011;11359;45.802;13.530;2022-09-09T07:56:07;0.80;;;0.50;;
22382;SDS011;11359;45.802;13.530;2022-09-09T07:58:37;0.40;;;0.40;;
22382;SDS011;11359;45.802;13.530;2022-09-09T08:01:08;0.30;;;0.30;;
22382;SDS011;11359;45.802;13.530;2022-09-09T08:03:35;0.50;;;0.47;;
22382;SDS011;11359;45.802;13.530;2022-09-09T08:06:02;0.45;;;0.40;;
22382;SDS011;11359;45.802;13.530;2022-09-09T08:08:29;0.50;;;0.40;;
22382;SDS011;11359;45.802;13.530;2022-09-09T08:11:09;0.77;;;0.45;;
22382;SDS011;11359;45.802;13.530;2022-09-09T08:13:36;0.47;;;0.40;;
22382;SDS011;11359;45.802;13.530;2022-09-09T08:16:13;0.30;;;0.30;;
22382;SDS011;11359;45.802;13.530;2022-09-09T08:18:43;0.30;;;0.30;;
22382;SDS011;11359;45.802;13.530;2022-09-09T08:21:13;0.55;;;0.50;;
22382;SDS011;11359;45.802;13.530;2022-09-09T08:23:42;0.30;;;0.30;;
22382;SDS011;11359;45.802;13.530;2022-09-09T08:26:11;0.40;;;0.40;;
22382;SDS011;11359;45.802;13.530;2022-09-09T08:28:39;0.40;;;0.40;;
22382;SDS011;11359;45.802;13.530;2022-09-09T08:33:41;0.40;;;0.40;;
22382;SDS011;11359;45.802;13.530;2022-09-09T08:36:11;0.60;;;0.40;;
22382;SDS011;11359;45.802;13.530;2022-09-09T08:38:40;0.50;;;0.43;;
22382;SDS011;11359;45.802;13.530;2022-09-09T08:58:12;0.50;;;0.50;;
22382;SDS011;11359;45.802;13.530;2022-09-09T09:00:47;0.70;;;0.50;;
22382;SDS011;11359;45.802;13.530;2022-09-09T09:06:06;0.50;;;0.50;;
22382;SDS011;11359;45.802;13.530;2022-09-09T09:11:58;0.47;;;0.47;;
22382;SDS011;11359;45.802;13.530;2022-09-09T09:14:26;0.40;;;0.40;;
22382;SDS011;11359;45.802;13.530;2022-09-09T09:19:35;0.60;;;0.60;;
22382;SDS011;11359;45.802;13.530;2022-09-09T09:24:54;0.40;;;0.40;;
22382;SDS011;11359;45.802;13.530;2022-09-09T09:27:24;2.88;;;1.10;;
22382;SDS011;11359;45.802;13.530;2022-09-09T09:29:54;3.92;;;1.45;;
22382;SDS011;11359;45.802;13.530;2022-09-09T09:32:23;2.85;;;1.67;;
22382;SDS011;11359;45.802;13.530;2022-09-09T09:34:55;2.15;;;1.83;;
22382;SDS011;11359;45.802;13.530;2022-09-09T09:37:26;2.63;;;1.90;;
22382;SDS011;11359;45.802;13.530;2022-09-09T09:39:55;3.97;;;1.83;;
22382;SDS011;11359;45.802;13.530;2022-09-09T09:42:21;1.52;;;1.20;;
22382;SDS011;11359;45.802;13.530;2022-09-09T09:44:48;1.13;;;1.02;;
22382;SDS011;11359;45.802;13.530;2022-09-09T09:47:14;1.80;;;1.13;;
22382;SDS011;11359;45.802;13.530;2022-09-09T09:49:57;1.23;;;1.10;;
22382;SDS011;11359;45.802;13.530;2022-09-09T09:52:30;1.73;;;0.98;;
22382;SDS011;11359;45.802;13.530;2022-09-09T09:54:57;2.65;;;1.00;;
22382;SDS011;11359;45.802;13.530;2022-09-09T09:57:27;1.77;;;1.05;;
22382;SDS011;11359;45.802;13.530;2022-09-09T10:00:15;1.38;;;0.95;;
22382;SDS011;11359;45.802;13.530;2022-09-09T10:24:44;1.27;;;0.60;;
22382;SDS011;11359;45.802;13.530;2022-09-09T10:33:09;0.40;;;0.40;;
22382;SDS011;11359;45.802;13.530;2022-09-09T10:36:29;0.70;;;0.50;;
22382;SDS011;11359;45.802;13.530;2022-09-09T10:38:42;1.13;;;0.55;;
22382;SDS011;11359;45.802;13.530;2022-09-09T10:59:02;0.50;;;0.50;;
22382;SDS011;11359;45.802;13.530;2022-09-09T11:01:22;0.97;;;0.50;;
22382;SDS011;11359;45.802;13.530;2022-09-09T11:04:02;0.50;;;0.50;;
22382;SDS011;11359;45.802;13.530;2022-09-09T11:06:37;0.50;;;0.40;;
22382;SDS011;11359;45.802;13.530;2022-09-09T11:09:08;0.75;;;0.60;;
22382;SDS011;11359;45.802;13.530;2022-09-09T11:11:44;0.73;;;0.60;;
22382;SDS011;11359;45.802;13.530;2022-09-09T11:14:14;0.70;;;0.70;;
22382;SDS011;11359;45.802;13.530;2022-09-09T11:17:04;0.88;;;0.80;;
22382;SDS011;11359;45.802;13.530;2022-09-09T11:24:54;0.57;;;0.50;;
22382;SDS011;11359;45.802;13.530;2022-09-09T11:42:22;0.52;;;0.52;;
22382;SDS011;11359;45.802;13.530;2022-09-09T11:44:45;0.60;;;0.60;;
22382;SDS011;11359;45.802;13.530;2022-09-09T11:47:16;0.80;;;0.43;;
22382;SDS011;11359;45.802;13.530;2022-09-09T11:49:55;0.50;;;0.40;;
22382;SDS011;11359;45.802;13.530;2022-09-09T11:52:44;0.50;;;0.50;;
22382;SDS011;11359;45.802;13.530;2022-09-09T11:55:33;1.00;;;0.68;;
22382;SDS011;11359;45.802;13.530;2022-09-09T11:58:13;0.70;;;0.60;;
22382;SDS011;11359;45.802;13.530;2022-09-09T12:00:45;0.50;;;0.50;;
22382;SDS011;11359;45.802;13.530;2022-09-09T12:06:17;0.40;;;0.40;;
22382;SDS011;11359;45.802;13.530;2022-09-09T12:11:37;0.40;;;0.40;;
22382;SDS011;11359;45.802;13.530;2022-09-09T12:14:03;0.40;;;0.40;;
22382;SDS011;11359;45.802;13.530;2022-09-09T12:19:06;0.30;;;0.30;;
22382;SDS011;11359;45.802;13.530;2022-09-09T12:21:51;0.40;;;0.40;;
22382;SDS011;11359;45.802;13.530;2022-09-09T12:27:06;0.30;;;0.30;;
22382;SDS011;11359;45.802;13.530;2022-09-09T12:29:43;0.40;;;0.40;;
22382;SDS011;11359;45.802;13.530;2022-09-09T12:32:15;0.40;;;0.40;;
22382;SDS011;11359;45.802;13.530;2022-09-09T12:34:47;0.40;;;0.40;;
22382;SDS011;11359;45.802;13.530;2022-09-09T12:40:01;0.40;;;0.40;;
22382;SDS011;11359;45.802;13.530;2022-09-09T12:42:32;0.30;;;0.30;;
22382;SDS011;11359;45.802;13.530;2022-09-09T12:45:02;0.40;;;0.40;;
22382;SDS011;11359;45.802;13.530;2022-09-09T12:47:44;0.30;;;0.30;;
22382;SDS011;11359;45.802;13.530;2022-09-09T12:50:26;0.50;;;0.40;;
22382;SDS011;11359;45.802;13.530;2022-09-09T12:52:56;0.32;;;0.32;;
22382;SDS011;11359;45.802;13.530;2022-09-09T12:55:29;0.50;;;0.40;;
22382;SDS011;11359;45.802;13.530;2022-09-09T12:57:58;0.40;;;0.40;;
22382;SDS011;11359;45.802;13.530;2022-09-09T13:00:53;0.40;;;0.40;;
22382;SDS011;11359;45.802;13.530;2022-09-09T13:03:21;0.40;;;0.40;;
22382;SDS011;11359;45.802;13.530;2022-09-09T13:05:48;0.40;;;0.40;;
22382;SDS011;11359;45.802;13.530;2022-09-09T13:08:15;0.40;;;0.40;;
22382;SDS011;11359;45.802;13.530;2022-09-09T13:13:29;0.30;;;0.30;;
22382;SDS011;11359;45.802;13.530;2022-09-09T13:16:01;0.30;;;0.30;;
22382;SDS011;11359;45.802;13.530;2022-09-09T13:18:33;0.63;;;0.43;;
22382;SDS011;11359;45.802;13.530;2022-09-09T13:21:01;0.40;;;0.40;;
22382;SDS011;11359;45.802;13.530;2022-09-09T13:23:28;0.40;;;0.40;;
22382;SDS011;11359;45.802;13.530;2022-09-09T13:25:59;0.50;;;0.50;;
22382;SDS011;11359;45.802;13.530;2022-09-09T13:28:28;0.70;;;0.50;;
22382;SDS011;11359;45.802;13.530;2022-09-09T13:30:56;0.40;;;0.40;;
22382;SDS011;11359;45.802;13.530;2022-09-09T13:33:33;0.65;;;0.40;;
22382;SDS011;11359;45.802;13.530;2022-09-09T13:36:08;1.00;;;0.50;;
22382;SDS011;11359;45.802;13.530;2022-09-09T13:41:06;0.73;;;0.40;;
22382;SDS011;11359;45.802;13.530;2022-09-09T13:43:43;0.38;;;0.38;;
22382;SDS011;11359;45.802;13.530;2022-09-09T13:51:35;0.20;;;0.20;;
22382;SDS011;11359;45.802;13.530;2022-09-09T13:54:02;0.55;;;0.30;;
22382;SDS011;11359;45.802;13.530;2022-09-09T13:56:34;0.40;;;0.30;;
22382;SDS011;11359;45.802;13.530;2022-09-09T13:59:00;0.30;;;0.30;;
22382;SDS011;11359;45.802;13.530;2022-09-09T14:01:27;0.77;;;0.40;;
22382;SDS011;11359;45.802;13.530;2022-09-09T14:03:54;0.30;;;0.30;;
22382;SDS011;11359;45.802;13.530;2022-09-09T14:06:19;0.40;;;0.30;;
22382;SDS011;11359;45.802;13.530;2022-09-09T14:08:47;0.40;;;0.35;;
22382;SDS011;11359;45.802;13.530;2022-09-09T14:11:15;0.65;;;0.40;;
22382;SDS011;11359;45.802;13.530;2022-09-09T14:13:41;0.40;;;0.40;;
22382;SDS011;11359;45.802;13.530;2022-09-09T14:16:07;0.80;;;0.40;;
22382;SDS011;11359;45.802;13.530;2022-09-09T14:18:33;0.47;;;0.40;;
22382;SDS011;11359;45.802;13.530;2022-09-09T14:20:59;0.50;;;0.50;;
22382;SDS011;11359;45.802;13.530;2022-09-09T14:23:25;0.50;;;0.40;;
22382;SDS011;11359;45.802;13.530;2022-09-09T14:25:51;0.30;;;0.30;;
22382;SDS011;11359;45.802;13.530;2022-09-09T14:28:17;0.30;;;0.30;;
22382;SDS011;11359;45.802;13.530;2022-09-09T14:30:43;0.20;;;0.20;;
22382;SDS011;11359;45.802;13.530;2022-09-09T14:33:10;0.30;;;0.20;;
22382;SDS011;11359;45.802;13.530;2022-09-09T14:35:38;0.30;;;0.30;;
22382;SDS011;11359;45.802;13.530;2022-09-09T14:38:05;0.47;;;0.30;;
22382;SDS011;11359;45.802;13.530;2022-09-09T14:40:31;0.30;;;0.30;;
22382;SDS011;11359;45.802;13.530;2022-09-09T14:42:59;1.67;;;0.30;;
22382;SDS011;11359;45.802;13.530;2022-09-09T14:45:24;0.65;;;0.40;;
22382;SDS011;11359;45.802;13.530;2022-09-09T14:47:51;0.85;;;0.50;;
22382;SDS011;11359;45.802;13.530;2022-09-09T14:50:20;0.57;;;0.40;;
22382;SDS011;11359;45.802;13.530;2022-09-09T14:52:46;0.75;;;0.50;;
22382;SDS011;11359;45.802;13.530;2022-09-09T14:55:12;0.40;;;0.40;;
22382;SDS011;11359;45.802;13.530;2022-09-09T14:57:38;0.68;;;0.60;;
22382;SDS011;11359;45.802;13.530;2022-09-09T15:00:05;2.22;;;0.93;;
22382;SDS011;11359;45.802;13.530;2022-09-09T15:02:32;1.05;;;0.77;;
22382;SDS011;11359;45.802;13.530;2022-09-09T15:04:58;0.88;;;0.60;;
22382;SDS011;11359;45.802;13.530;2022-09-09T15:07:24;1.25;;;0.82;;
22382;SDS011;11359;45.802;13.530;2022-09-09T15:09:52;5.15;;;1.20;;
22382;SDS011;11359;45.802;13.530;2022-09-09T15:12:18;3.40;;;1.50;;
22382;SDS011;11359;45.802;13.530;2022-09-09T15:14:44;3.47;;;1.38;;
22382;SDS011;11359;45.802;13.530;2022-09-09T15:17:10;3.38;;;1.52;;
22382;SDS011;11359;45.802;13.530;2022-09-09T15:19:36;2.38;;;1.10;;
22382;SDS011;11359;45.802;13.530;2022-09-09T15:22:03;1.10;;;1.00;;
22382;SDS011;11359;45.802;13.530;2022-09-09T15:24:30;1.90;;;0.77;;
22382;SDS011;11359;45.802;13.530;2022-09-09T15:26:57;0.82;;;0.70;;
22382;SDS011;11359;45.802;13.530;2022-09-09T15:29:23;1.55;;;0.80;;
22382;SDS011;11359;45.802;13.530;2022-09-09T15:31:48;0.63;;;0.55;;
22382;SDS011;11359;45.802;13.530;2022-09-09T15:34:14;1.23;;;0.70;;
22382;SDS011;11359;45.802;13.530;2022-09-09T15:36:41;0.90;;;0.70;;
22382;SDS011;11359;45.802;13.530;2022-09-09T15:39:09;0.80;;;0.60;;
22382;SDS011;11359;45.802;13.530;2022-09-09T15:41:37;0.57;;;0.50;;
22382;SDS011;11359;45.802;13.530;2022-09-09T15:44:04;0.95;;;0.68;;
22382;SDS011;11359;45.802;13.530;2022-09-09T15:46:34;0.63;;;0.50;;
22382;SDS011;11359;45.802;13.530;2022-09-09T15:49:08;0.35;;;0.32;;
22382;SDS011;11359;45.802;13.530;2022-09-09T15:51:40;0.47;;;0.47;;
22382;SDS011;11359;45.802;13.530;2022-09-09T15:54:07;0.65;;;0.43;;
22382;SDS011;11359;45.802;13.530;2022-09-09T15:56:34;0.85;;;0.40;;
22382;SDS011;11359;45.802;13.530;2022-09-09T15:59:00;0.30;;;0.30;;
22382;SDS011;11359;45.802;13.530;2022-09-09T16:01:28;0.47;;;0.40;;
22382;SDS011;11359;45.802;13.530;2022-09-09T16:03:55;0.30;;;0.30;;
22382;SDS011;11359;45.802;13.530;2022-09-09T16:06:22;0.40;;;0.40;;
22382;SDS011;11359;45.802;13.530;2022-09-09T16:08:49;0.30;;;0.30;;
22382;SDS011;11359;45.802;13.530;2022-09-09T16:11:18;0.30;;;0.30;;
22382;SDS011;11359;45.802;13.530;2022-09-09T16:13:46;0.60;;;0.50;;
22382;SDS011;11359;45.802;13.530;2022-09-09T16:16:14;0.40;;;0.40;;
22382;SDS011;11359;45.802;13.530;2022-09-09T16:18:44;0.65;;;0.40;;
22382;SDS011;11359;45.802;13.530;2022-09-09T16:21:22;0.30;;;0.30;;
22382;SDS011;11359;45.802;13.530;2022-09-09T16:23:49;0.45;;;0.40;;
22382;SDS011;11359;45.802;13.530;2022-09-09T16:26:16;0.80;;;0.50;;
22382;SDS011;11359;45.802;13.530;2022-09-09T16:28:42;0.40;;;0.40;;
22382;SDS011;11359;45.802;13.530;2022-09-09T16:31:30;0.40;;;0.40;;
22382;SDS011;11359;45.802;13.530;2022-09-09T16:33:55;0.50;;;0.50;;
22382;SDS011;11359;45.802;13.530;2022-09-09T16:38:52;0.40;;;0.40;;
22382;SDS011;11359;45.802;13.530;2022-09-09T16:41:22;0.52;;;0.50;;
22382;SDS011;11359;45.802;13.530;2022-09-09T16:44:07;0.43;;;0.43;;
22382;SDS011;11359;45.802;13.530;2022-09-09T16:46:36;0.55;;;0.40;;
22382;SDS011;11359;45.802;13.530;2022-09-09T16:49:04;0.50;;;0.50;;
22382;SDS011;11359;45.802;13.530;2022-09-09T16:51:33;0.60;;;0.50;;
22382;SDS011;11359;45.802;13.530;2022-09-09T16:54:04;0.60;;;0.60;;
22382;SDS011;11359;45.802;13.530;2022-09-09T16:56:32;0.50;;;0.40;;
22382;SDS011;11359;45.802;13.530;2022-09-09T16:59:02;0.40;;;0.40;;
22382;SDS011;11359;45.802;13.530;2022-09-09T17:01:31;0.70;;;0.50;;
22382;SDS011;11359;45.802;13.530;2022-09-09T17:04:01;1.17;;;0.50;;
22382;SDS011;11359;45.802;13.530;2022-09-09T17:06:29;0.47;;;0.38;;
22382;SDS011;11359;45.802;13.530;2022-09-09T17:08:56;0.73;;;0.40;;
22382;SDS011;11359;45.802;13.530;2022-09-09T17:11:24;0.43;;;0.43;;
22382;SDS011;11359;45.802;13.530;2022-09-09T17:13:50;0.35;;;0.35;;
22382;SDS011;11359;45.802;13.530;2022-09-09T17:16:20;0.40;;;0.40;;
22382;SDS011;11359;45.802;13.530;2022-09-09T17:18:47;0.40;;;0.40;;
22382;SDS011;11359;45.802;13.530;2022-09-09T17:21:14;0.47;;;0.40;;
22382;SDS011;11359;45.802;13.530;2022-09-09T17:23:43;0.40;;;0.40;;
22382;SDS011;11359;45.802;13.530;2022-09-09T17:26:10;0.77;;;0.52;;
22382;SDS011;11359;45.802;13.530;2022-09-09T17:28:38;0.40;;;0.40;;
22382;SDS011;11359;45.802;13.530;2022-09-09T17:31:06;0.65;;;0.40;;
22382;SDS011;11359;45.802;13.530;2022-09-09T17:33:33;0.50;;;0.50;;
22382;SDS011;11359;45.802;13.530;2022-09-09T17:36:00;0.40;;;0.40;;
22382;SDS011;11359;45.802;13.530;2022-09-09T17:38:28;0.60;;;0.50;;
22382;SDS011;11359;45.802;13.530;2022-09-09T17:41:10;0.40;;;0.40;;
22382;SDS011;11359;45.802;13.530;2022-09-09T17:43:36;0.47;;;0.47;;
22382;SDS011;11359;45.802;13.530;2022-09-09T17:50:23;0.40;;;0.40;;
22382;SDS011;11359;45.802;13.530;2022-09-09T17:52:49;0.40;;;0.40;;
22382;SDS011;11359;45.802;13.530;2022-09-09T17:55:14;0.50;;;0.50;;
22382;SDS011;11359;45.802;13.530;2022-09-09T17:57:42;0.50;;;0.50;;
22382;SDS011;11359;45.802;13.530;2022-09-09T18:00:08;0.38;;;0.38;;
22382;SDS011;11359;45.802;13.530;2022-09-09T18:02:34;0.57;;;0.40;;
22382;SDS011;11359;45.802;13.530;2022-09-09T18:05:00;0.40;;;0.40;;
22382;SDS011;11359;45.802;13.530;2022-09-09T18:07:26;0.88;;;0.52;;
22382;SDS011;11359;45.802;13.530;2022-09-09T18:09:52;0.85;;;0.50;;
22382;SDS011;11359;45.802;13.530;2022-09-09T18:12:17;0.57;;;0.50;;
22382;SDS011;11359;45.802;13.530;2022-09-09T18:14:43;0.40;;;0.40;;
22382;SDS011;11359;45.802;13.530;2022-09-09T18:17:09;0.50;;;0.50;;
22382;SDS011;11359;45.802;13.530;2022-09-09T18:19:35;0.60;;;0.50;;
22382;SDS011;11359;45.802;13.530;2022-09-09T18:22:02;0.52;;;0.43;;
22382;SDS011;11359;45.802;13.530;2022-09-09T18:24:29;0.40;;;0.40;;
22382;SDS011;11359;45.802;13.530;2022-09-09T18:26:55;0.40;;;0.40;;
22382;SDS011;11359;45.802;13.530;2022-09-09T18:29:22;0.40;;;0.40;;
22382;SDS011;11359;45.802;13.530;2022-09-09T18:31:52;1.00;;;0.40;;
22382;SDS011;11359;45.802;13.530;2022-09-09T18:34:19;1.33;;;0.40;;
22382;SDS011;11359;45.802;13.530;2022-09-09T18:36:47;0.50;;;0.40;;
22382;SDS011;11359;45.802;13.530;2022-09-09T18:39:18;0.52;;;0.50;;
22382;SDS011;11359;45.802;13.530;2022-09-09T18:41:45;0.55;;;0.55;;
22382;SDS011;11359;45.802;13.530;2022-09-09T18:44:14;0.40;;;0.40;;
22382;SDS011;11359;45.802;13.530;2022-09-09T18:46:42;0.50;;;0.50;;
22382;SDS011;11359;45.802;13.530;2022-09-09T18:49:08;0.50;;;0.50;;
22382;SDS011;11359;45.802;13.530;2022-09-09T18:51:37;0.32;;;0.32;;
22382;SDS011;11359;45.802;13.530;2022-09-09T18:54:06;0.40;;;0.40;;
22382;SDS011;11359;45.802;13.530;2022-09-09T18:56:35;0.52;;;0.40;;
22382;SDS011;11359;45.802;13.530;2022-09-09T18:59:02;0.50;;;0.50;;
22382;SDS011;11359;45.802;13.530;2022-09-09T19:01:30;0.63;;;0.55;;
22382;SDS011;11359;45.802;13.530;2022-09-09T19:03:56;0.50;;;0.50;;
22382;SDS011;11359;45.802;13.530;2022-09-09T19:06:23;0.52;;;0.50;;
22382;SDS011;11359;45.802;13.530;2022-09-09T19:08:51;0.40;;;0.40;;
22382;SDS011;11359;45.802;13.530;2022-09-09T19:11:19;0.50;;;0.50;;
22382;SDS011;11359;45.802;13.530;2022-09-09T19:13:56;0.40;;;0.40;;
22382;SDS011;11359;45.802;13.530;2022-09-09T19:16:25;0.40;;;0.40;;
22382;SDS011;11359;45.802;13.530;2022-09-09T19:18:53;0.55;;;0.40;;
22382;SDS011;11359;45.802;13.530;2022-09-09T19:21:22;0.82;;;0.40;;
22382;SDS011;11359;45.802;13.530;2022-09-09T19:23:54;0.73;;;0.50;;
22382;SDS011;11359;45.802;13.530;2022-09-09T19:26:25;0.50;;;0.50;;
22382;SDS011;11359;45.802;13.530;2022-09-09T19:28:52;0.60;;;0.50;;
22382;SDS011;11359;45.802;13.530;2022-09-09T19:31:18;0.50;;;0.50;;
22382;SDS011;11359;45.802;13.530;2022-09-09T19:33:45;0.40;;;0.40;;
22382;SDS011;11359;45.802;13.530;2022-09-09T19:36:12;0.40;;;0.35;;
22382;SDS011;11359;45.802;13.530;2022-09-09T19:38:42;0.47;;;0.47;;
22382;SDS011;11359;45.802;13.530;2022-09-09T19:41:10;0.30;;;0.30;;
22382;SDS011;11359;45.802;13.530;2022-09-09T19:43:38;0.50;;;0.40;;
22382;SDS011;11359;45.802;13.530;2022-09-09T19:46:05;0.35;;;0.35;;
22382;SDS011;11359;45.802;13.530;2022-09-09T19:48:33;0.77;;;0.50;;
22382;SDS011;11359;45.802;13.530;2022-09-09T19:51:20;0.40;;;0.40;;
22382;SDS011;11359;45.802;13.530;2022-09-09T19:53:48;0.40;;;0.40;;
22382;SDS011;11359;45.802;13.530;2022-09-09T19:56:20;0.30;;;0.30;;
22382;SDS011;11359;45.802;13.530;2022-09-09T19:58:47;0.30;;;0.30;;
22382;SDS011;11359;45.802;13.530;2022-09-09T20:01:21;0.30;;;0.30;;
22382;SDS011;11359;45.802;13.530;2022-09-09T20:03:50;0.68;;;0.45;;
22382;SDS011;11359;45.802;13.530;2022-09-09T20:06:18;0.32;;;0.32;;
22382;SDS011;11359;45.802;13.530;2022-09-09T20:08:47;0.40;;;0.40;;
22382;SDS011;11359;45.802;13.530;2022-09-09T20:11:15;0.40;;;0.40;;
22382;SDS011;11359;45.802;13.530;2022-09-09T20:13:41;0.40;;;0.40;;
22382;SDS011;11359;45.802;13.530;2022-09-09T20:16:11;0.50;;;0.40;;
22382;SDS011;11359;45.802;13.530;2022-09-09T20:18:57;0.38;;;0.38;;
22382;SDS011;11359;45.802;13.530;2022-09-09T20:21:26;0.60;;;0.40;;
22382;SDS011;11359;45.802;13.530;2022-09-09T20:23:55;0.45;;;0.45;;
22382;SDS011;11359;45.802;13.530;2022-09-09T20:26:21;0.43;;;0.43;;
22382;SDS011;11359;45.802;13.530;2022-09-09T20:28:50;0.40;;;0.40;;
22382;SDS011;11359;45.802;13.530;2022-09-09T20:31:25;0.60;;;0.40;;
22382;SDS011;11359;45.802;13.530;2022-09-09T20:33:53;1.08;;;0.40;;
22382;SDS011;11359;45.802;13.530;2022-09-09T20:36:23;0.40;;;0.40;;
22382;SDS011;11359;45.802;13.530;2022-09-09T20:38:54;0.50;;;0.50;;
22382;SDS011;11359;45.802;13.530;2022-09-09T20:41:25;0.40;;;0.40;;
22382;SDS011;11359;45.802;13.530;2022-09-09T20:43:53;0.40;;;0.40;;
22382;SDS011;11359;45.802;13.530;2022-09-09T20:46:22;1.10;;;0.50;;
22382;SDS011;11359;45.802;13.530;2022-09-09T20:48:50;0.50;;;0.47;;
22382;SDS011;11359;45.802;13.530;2022-09-09T20:51:17;0.40;;;0.40;;
22382;SDS011;11359;45.802;13.530;2022-09-09T20:53:47;0.45;;;0.45;;
22382;SDS011;11359;45.802;13.530;2022-09-09T20:56:20;0.50;;;0.50;;
22382;SDS011;11359;45.802;13.530;2022-09-09T20:58:50;0.63;;;0.47;;
22382;SDS011;11359;45.802;13.530;2022-09-09T21:01:17;0.45;;;0.40;;
22382;SDS011;11359;45.802;13.530;2022-09-09T21:03:44;0.80;;;0.43;;
22382;SDS011;11359;45.802;13.530;2022-09-09T21:06:10;0.57;;;0.45;;
22382;SDS011;11359;45.802;13.530;2022-09-09T21:08:37;0.52;;;0.50;;
22382;SDS011;11359;45.802;13.530;2022-09-09T21:11:03;0.47;;;0.40;;
22382;SDS011;11359;45.802;13.530;2022-09-09T21:13:29;0.40;;;0.40;;
22382;SDS011;11359;45.802;13.530;2022-09-09T21:15:56;0.50;;;0.50;;
22382;SDS011;11359;45.802;13.530;2022-09-09T21:18:23;0.40;;;0.40;;
22382;SDS011;11359;45.802;13.530;2022-09-09T21:20:51;0.30;;;0.30;;
22382;SDS011;11359;45.802;13.530;2022-09-09T21:23:18;0.47;;;0.47;;
22382;SDS011;11359;45.802;13.530;2022-09-09T21:25:44;0.40;;;0.40;;
22382;SDS011;11359;45.802;13.530;2022-09-09T21:28:11;0.52;;;0.43;;
22382;SDS011;11359;45.802;13.530;2022-09-09T21:30:37;0.50;;;0.50;;
22382;SDS011;11359;45.802;13.530;2022-09-09T21:33:10;0.50;;;0.50;;
22382;SDS011;11359;45.802;13.530;2022-09-09T21:35:39;0.57;;;0.57;;
22382;SDS011;11359;45.802;13.530;2022-09-09T21:38:05;1.23;;;1.10;;
22382;SDS011;11359;45.802;13.530;2022-09-09T21:40:36;1.45;;;0.90;;
22382;SDS011;11359;45.802;13.530;2022-09-09T21:43:03;1.65;;;1.00;;
22382;SDS011;11359;45.802;13.530;2022-09-09T21:45:29;4.53;;;1.48;;
22382;SDS011;11359;45.802;13.530;2022-09-09T21:47:55;2.08;;;1.48;;
22382;SDS011;11359;45.802;13.530;2022-09-09T21:50:21;2.67;;;1.65;;
22382;SDS011;11359;45.802;13.530;2022-09-09T21:52:47;3.05;;;1.70;;
22382;SDS011;11359;45.802;13.530;2022-09-09T21:55:13;1.85;;;1.40;;
22382;SDS011;11359;45.802;13.530;2022-09-09T21:57:39;2.17;;;1.52;;
22382;SDS011;11359;45.802;13.530;2022-09-09T22:00:05;1.80;;;1.48;;
22382;SDS011;11359;45.802;13.530;2022-09-09T22:02:45;2.28;;;1.30;;